Time;durP1;ratioP1;P1;durP2;ratioP2;P2;SDS_P1;SDS_P2;PMS_P1;PMS_P2;Temp;Humidity;BMP_temperature;BMP_pressure;BME280_temperature;BME280_humidity;BME280_pressure;Samples;Min_cycle;Max_cycle;Signal;HPM_P1;HPM_P2
2023/01/10 00:01:35;;;;;;;23.08;13.13;;;6.20;85.00;;;;;;5074913;28;20400;-14
2023/01/10 00:04:01;;;;;;;23.77;13.15;;;6.20;84.90;;;;;;5074911;28;20028;-13
2023/01/10 00:06:27;;;;;;;24.00;13.20;;;6.20;85.00;;;;;;5076128;28;20044;-14
2023/01/10 00:08:53;;;;;;;23.42;13.10;;;6.20;85.10;;;;;;5074736;28;20040;-14
2023/01/10 00:14:03;;;;;;;22.88;13.65;;;6.20;85.10;;;;;;5075113;28;20036;-14
2023/01/10 00:16:29;;;;;;;22.98;13.48;;;6.20;85.00;;;;;;5074669;28;20400;-13
2023/01/10 00:18:55;;;;;;;24.58;14.15;;;6.20;85.00;;;;;;5074119;28;20052;-13
2023/01/10 00:21:21;;;;;;;24.23;13.70;;;6.20;84.90;;;;;;5074871;28;20047;-14
2023/01/10 00:23:48;;;;;;;24.80;14.38;;;6.20;84.90;;;;;;5074760;28;20028;-14
2023/01/10 00:26:13;;;;;;;26.30;14.75;;;6.20;84.90;;;;;;5074425;28;20029;-13
2023/01/10 00:28:40;;;;;;;25.17;14.75;;;6.10;84.90;;;;;;5074369;28;20027;-14
2023/01/10 00:31:10;;;;;;;24.27;14.63;;;6.10;84.90;;;;;;5074151;28;20028;-14
2023/01/10 00:33:37;;;;;;;24.48;14.43;;;6.00;84.90;;;;;;5074612;28;20046;-14
2023/01/10 00:36:06;;;;;;;24.25;14.82;;;6.00;85.00;;;;;;5074619;28;20029;-13
2023/01/10 00:38:33;;;;;;;23.52;13.93;;;6.00;84.90;;;;;;5074240;28;20411;-14
2023/01/10 00:40:59;;;;;;;22.20;13.02;;;5.90;84.90;;;;;;5073882;28;20036;-14
2023/01/10 00:46:09;;;;;;;;;;;5.80;85.00;;;;;;5074824;28;20086;-14
2023/01/10 00:48:36;;;;;;;24.25;12.95;;;5.70;85.10;;;;;;5073957;28;19905;-15
2023/01/10 00:51:03;;;;;;;22.95;13.00;;;5.60;85.20;;;;;;5073774;28;20023;-11
2023/01/10 00:53:29;;;;;;;23.85;13.25;;;5.60;85.30;;;;;;5074278;28;20036;-12
2023/01/10 00:55:55;;;;;;;23.48;13.88;;;5.50;85.30;;;;;;5089364;28;20073;-12
2023/01/10 00:58:22;;;;;;;25.90;14.70;;;5.40;85.30;;;;;;5074016;28;20025;-13
2023/01/10 01:00:48;;;;;;;25.40;14.30;;;5.40;85.50;;;;;;5089139;28;20036;-12
2023/01/10 01:03:17;;;;;;;24.60;13.75;;;5.40;85.50;;;;;;5073946;28;20021;-12
2023/01/10 01:05:44;;;;;;;25.40;14.57;;;5.30;85.60;;;;;;5073802;28;20032;-13
2023/01/10 01:08:12;;;;;;;22.83;13.52;;;5.20;85.60;;;;;;5073775;28;20028;-13
2023/01/10 01:10:37;;;;;;;29.35;14.68;;;5.10;85.50;;;;;;5073453;28;20119;-12
2023/01/10 01:13:10;;;;;;;23.35;13.60;;;5.10;85.70;;;;;;5073565;28;20107;-14
2023/01/10 01:15:39;;;;;;;22.02;12.65;;;5.00;85.60;;;;;;5073811;28;20032;-13
2023/01/10 01:18:05;;;;;;;21.42;12.90;;;4.90;85.60;;;;;;5073699;28;20052;-13
2023/01/10 01:20:32;;;;;;;24.80;13.82;;;4.70;85.50;;;;;;5073022;28;20535;-13
2023/01/10 01:22:59;;;;;;;20.45;11.75;;;4.60;85.60;;;;;;5073350;28;20096;-14
2023/01/10 01:25:25;;;;;;;23.70;13.23;;;4.60;85.80;;;;;;5073260;28;20025;-12
2023/01/10 01:27:51;;;;;;;23.77;13.85;;;4.50;86.00;;;;;;5073156;28;20024;-13
2023/01/10 01:30:17;;;;;;;22.05;13.18;;;4.40;86.10;;;;;;5073108;28;20024;-12
2023/01/10 01:32:43;;;;;;;24.95;12.65;;;4.40;86.10;;;;;;5073147;28;20039;-14
2023/01/10 01:35:13;;;;;;;26.25;14.55;;;4.40;86.30;;;;;;5073029;28;20032;-13
2023/01/10 01:37:39;;;;;;;25.48;13.80;;;4.40;86.40;;;;;;5073333;28;20033;-12
2023/01/10 01:40:06;;;;;;;28.42;15.73;;;4.40;86.50;;;;;;5071557;28;20036;-13
2023/01/10 01:42:34;;;;;;;22.67;12.63;;;4.40;86.60;;;;;;5072903;28;20028;-14
2023/01/10 01:45:27;;;;;;;25.23;14.10;;;4.30;86.50;;;;;;5073102;28;20032;-11
2023/01/10 01:48:01;;;;;;;22.00;12.60;;;4.30;86.60;;;;;;5073229;28;20024;-12
2023/01/10 01:50:39;;;;;;;18.00;10.93;;;4.20;86.50;;;;;;5072467;28;20109;-12
2023/01/10 01:53:26;;;;;;;23.33;13.45;;;4.10;86.50;;;;;;5072694;28;20048;-13
2023/01/10 01:55:56;;;;;;;21.60;12.93;;;4.10;86.70;;;;;;5072669;28;20430;-13
2023/01/10 01:58:32;;;;;;;25.52;13.82;;;4.00;86.60;;;;;;5072807;28;20451;-12
2023/01/10 02:00:58;;;;;;;25.45;13.88;;;4.00;86.80;;;;;;5072889;28;20044;-11
2023/01/10 02:03:25;;;;;;;22.30;12.18;;;4.00;86.80;;;;;;5071381;28;20023;-12
2023/01/10 02:05:52;;;;;;;25.02;13.25;;;3.90;86.80;;;;;;5072680;28;20032;-13
2023/01/10 02:08:18;;;;;;;25.17;13.02;;;3.90;86.70;;;;;;5072565;28;20032;-13
2023/01/10 02:11:09;;;;;;;23.73;13.85;;;3.90;86.90;;;;;;5072571;28;20466;-13
2023/01/10 02:13:41;;;;;;;26.73;15.30;;;3.90;87.00;;;;;;5072653;28;20052;-14
2023/01/10 02:16:08;;;;;;;27.33;15.88;;;3.90;87.00;;;;;;5072856;28;20032;-13
2023/01/10 02:18:36;;;;;;;24.30;12.82;;;3.80;86.90;;;;;;5072577;28;20115;-13
2023/01/10 02:21:43;;;;;;;25.30;13.77;;;3.70;87.00;;;;;;5072492;28;20040;-13
2023/01/10 02:24:40;;;;;;;23.60;13.07;;;3.70;87.00;;;;;;5072466;28;20050;-12
2023/01/10 02:27:22;;;;;;;27.55;14.25;;;3.70;87.10;;;;;;5070972;28;20033;-13
2023/01/10 02:30:09;;;;;;;24.02;12.88;;;3.60;87.00;;;;;;5072549;28;20024;-14
2023/01/10 02:32:47;;;;;;;27.67;15.75;;;3.60;87.00;;;;;;5072457;28;20055;-12
2023/01/10 02:35:27;;;;;;;29.40;14.75;;;3.50;87.00;;;;;;5072773;28;20499;-13
2023/01/10 02:38:01;;;;;;;29.83;16.45;;;3.50;87.00;;;;;;5072450;28;20021;-12
2023/01/10 02:40:50;;;;;;;27.88;14.82;;;3.40;87.00;;;;;;5072098;28;20042;-13
2023/01/10 02:43:25;;;;;;;23.55;13.13;;;3.40;87.00;;;;;;5072666;28;20025;-13
2023/01/10 02:46:30;;;;;;;27.42;14.75;;;3.40;87.00;;;;;;5072845;28;20021;-12
2023/01/10 02:48:56;;;;;;;25.13;13.45;;;3.30;86.90;;;;;;5071829;28;20110;-13
2023/01/10 02:51:27;;;;;;;27.33;15.20;;;3.20;86.90;;;;;;5072172;28;20016;-13
2023/01/10 02:54:01;;;;;;;25.40;13.55;;;3.10;87.00;;;;;;5072338;28;20430;-13
2023/01/10 02:57:14;;;;;;;29.65;15.50;;;3.10;87.00;;;;;;5072673;28;20044;-12
2023/01/10 02:59:54;;;;;;;25.05;13.27;;;3.00;87.10;;;;;;5050096;28;20037;-13
2023/01/10 03:02:41;;;;;;;23.92;13.35;;;3.00;87.30;;;;;;5051430;28;20033;-13
2023/01/10 03:05:18;;;;;;;18.80;10.30;;;2.90;87.30;;;;;;5053600;28;20055;-12
2023/01/10 03:08:15;;;;;;;23.42;12.93;;;2.90;87.30;;;;;;5054021;28;20071;-12
2023/01/10 03:10:58;;;;;;;20.50;10.90;;;2.80;87.20;;;;;;5053687;28;20064;-12
2023/01/10 03:13:41;;;;;;;22.13;12.50;;;2.80;87.20;;;;;;5053758;28;20030;-12
2023/01/10 03:16:12;;;;;;;22.02;12.23;;;2.80;87.30;;;;;;5053956;28;20041;-14
2023/01/10 03:18:57;;;;;;;22.35;11.68;;;2.60;87.20;;;;;;5053582;28;20508;-12
2023/01/10 03:21:27;;;;;;;22.48;12.52;;;2.60;87.20;;;;;;5053538;28;20037;-14
2023/01/10 03:23:58;;;;;;;24.23;12.57;;;2.60;87.30;;;;;;5053703;28;20033;-13
2023/01/10 03:26:38;;;;;;;45.08;13.45;;;2.60;87.40;;;;;;5053579;28;20017;-13
2023/01/10 03:29:09;;;;;;;24.35;12.95;;;2.50;87.40;;;;;;5053189;28;20124;-13
2023/01/10 03:31:53;;;;;;;20.42;11.82;;;2.50;87.30;;;;;;5053418;28;20029;-13
2023/01/10 03:34:20;;;;;;;17.23;9.35;;;2.50;87.40;;;;;;5036641;28;20033;-14
2023/01/10 03:36:58;;;;;;;19.50;9.82;;;2.40;87.40;;;;;;5073511;28;20384;-15
2023/01/10 03:39:46;;;;;;;19.20;10.73;;;2.40;87.40;;;;;;5075634;28;20039;-13
2023/01/10 03:42:26;;;;;;;23.13;11.93;;;2.30;87.30;;;;;;5075351;28;20032;-14
2023/01/10 03:45:07;;;;;;;30.13;14.93;;;2.30;87.30;;;;;;5075533;28;20033;-13
2023/01/10 03:47:47;;;;;;;22.25;12.35;;;2.20;87.50;;;;;;5075612;28;20024;-14
2023/01/10 03:50:22;;;;;;;24.83;11.88;;;2.20;87.50;;;;;;5075164;28;20545;-14
2023/01/10 03:52:48;;;;;;;25.90;13.43;;;2.20;87.50;;;;;;5075133;28;20033;-14
2023/01/10 03:55:19;;;;;;;25.27;13.70;;;2.20;87.50;;;;;;5075016;28;20051;-15
2023/01/10 03:57:45;;;;;;;23.55;13.18;;;2.10;87.50;;;;;;5075405;28;20464;-14
2023/01/10 04:00:13;;;;;;;25.98;12.02;;;2.10;87.50;;;;;;5074894;28;20044;-13
2023/01/10 04:02:39;;;;;;;21.17;11.48;;;2.10;87.50;;;;;;5075244;28;20028;-13
2023/01/10 04:05:05;;;;;;;22.17;10.75;;;2.00;87.50;;;;;;5074711;28;20025;-14
2023/01/10 04:07:32;;;;;;;21.98;12.32;;;2.00;87.40;;;;;;5075140;28;20125;-13
2023/01/10 04:09:57;;;;;;;24.80;13.02;;;1.90;87.50;;;;;;5074663;28;20400;-13
2023/01/10 04:12:23;;;;;;;23.50;12.48;;;1.90;87.50;;;;;;5074443;28;20028;-14
2023/01/10 04:14:49;;;;;;;25.20;12.85;;;2.00;87.60;;;;;;5074510;28;20021;-14
2023/01/10 04:17:16;;;;;;;21.02;11.52;;;1.90;87.40;;;;;;5074657;28;20142;-14
2023/01/10 04:19:43;;;;;;;25.63;13.32;;;1.80;87.40;;;;;;5074332;28;20059;-14
2023/01/10 04:22:10;;;;;;;22.35;11.23;;;1.70;87.30;;;;;;5074485;28;20024;-14
2023/01/10 04:24:36;;;;;;;22.13;11.82;;;1.70;87.30;;;;;;5074463;28;20488;-14
2023/01/10 04:27:03;;;;;;;18.80;10.60;;;1.60;87.40;;;;;;5074161;28;20503;-14
2023/01/10 04:29:29;;;;;;;22.30;11.05;;;1.60;87.40;;;;;;5074370;28;20020;-14
2023/01/10 04:31:55;;;;;;;30.30;12.98;;;1.50;87.40;;;;;;5074564;28;20020;-14
2023/01/10 04:34:21;;;;;;;20.63;9.98;;;1.50;87.40;;;;;;5073039;28;20056;-14
2023/01/10 04:36:47;;;;;;;22.05;12.05;;;1.40;87.50;;;;;;5072807;28;20066;-15
2023/01/10 04:39:14;;;;;;;27.00;12.57;;;1.60;87.60;;;;;;5074382;28;20025;-14
2023/01/10 04:41:40;;;;;;;38.03;13.15;;;1.40;87.40;;;;;;5074051;28;20099;-15
2023/01/10 04:44:06;;;;;;;26.05;11.70;;;1.30;87.30;;;;;;5074227;28;20036;-14
2023/01/10 04:46:32;;;;;;;28.77;11.93;;;1.30;87.40;;;;;;5074255;28;20028;-15
2023/01/10 04:48:58;;;;;;;40.30;10.68;;;1.20;87.30;;;;;;5073883;28;20036;-15
2023/01/10 04:51:25;;;;;;;30.75;9.95;;;1.10;87.30;;;;;;5072781;28;20119;-14
2023/01/10 04:53:52;;;;;;;29.65;9.70;;;1.00;87.20;;;;;;5073903;28;20060;-14
2023/01/10 04:56:20;;;;;;;34.28;10.02;;;0.90;87.20;;;;;;5073812;28;20028;-14
2023/01/10 04:58:47;;;;;;;21.08;8.75;;;0.80;87.30;;;;;;5073785;28;20020;-14
2023/01/10 05:01:23;;;;;;;18.33;8.20;;;0.90;87.50;;;;;;5074110;28;20048;-14
2023/01/10 05:03:52;;;;;;;29.35;8.60;;;0.80;87.50;;;;;;5073905;28;20020;-15
2023/01/10 05:06:18;;;;;;;36.55;10.35;;;0.80;87.60;;;;;;5073805;28;20029;-14
2023/01/10 05:08:44;;;;;;;27.10;8.57;;;0.80;87.60;;;;;;5073933;28;20032;-13
2023/01/10 05:11:11;;;;;;;28.92;9.45;;;0.70;87.70;;;;;;5073376;28;20413;-14
2023/01/10 05:13:38;;;;;;;24.40;11.00;;;0.70;87.70;;;;;;5072572;28;20033;-14
2023/01/10 05:16:04;;;;;;;29.88;11.05;;;0.80;87.80;;;;;;5073608;28;20500;-15
2023/01/10 05:18:30;;;;;;;21.77;11.07;;;0.80;87.80;;;;;;5073905;28;20090;-14
2023/01/10 05:21:04;;;;;;;27.80;14.05;;;0.70;87.80;;;;;;5072932;28;20044;-13
2023/01/10 05:23:31;;;;;;;29.50;13.20;;;0.70;87.80;;;;;;5073565;28;20025;-14
2023/01/10 05:25:57;;;;;;;27.45;12.70;;;0.70;87.80;;;;;;5072778;28;20063;-14
2023/01/10 05:28:23;;;;;;;19.23;8.75;;;0.70;87.80;;;;;;5073506;28;20074;-15
2023/01/10 05:30:49;;;;;;;16.73;9.90;;;0.60;87.80;;;;;;5072829;28;20077;-13
2023/01/10 05:33:15;;;;;;;18.67;10.52;;;0.70;87.80;;;;;;5073444;28;20020;-14
2023/01/10 05:35:41;;;;;;;23.88;11.13;;;0.70;87.80;;;;;;5073083;28;20438;-14
2023/01/10 05:38:06;;;;;;;23.70;12.73;;;0.70;87.70;;;;;;5073521;28;20044;-13
2023/01/10 05:40:32;;;;;;;26.90;11.88;;;0.60;87.70;;;;;;5073056;28;20516;-15
2023/01/10 05:42:58;;;;;;;18.10;8.88;;;0.60;87.70;;;;;;5072762;28;20472;-14
2023/01/10 05:45:24;;;;;;;19.60;9.77;;;0.60;87.70;;;;;;5072893;28;20032;-15
2023/01/10 05:47:50;;;;;;;22.35;11.10;;;0.50;87.70;;;;;;5072700;28;20042;-13
2023/01/10 05:50:16;;;;;;;47.22;18.23;;;0.60;87.80;;;;;;5073005;28;20020;-14
2023/01/10 05:52:42;;;;;;;57.92;15.60;;;0.50;87.70;;;;;;5072797;28;20434;-14
2023/01/10 05:55:08;;;;;;;43.70;13.82;;;0.50;87.70;;;;;;5072767;28;20036;-13
2023/01/10 05:57:34;;;;;;;38.67;14.43;;;0.50;87.80;;;;;;5072741;28;20036;-14
2023/01/10 06:00:00;;;;;;;27.65;10.88;;;0.50;87.90;;;;;;5072569;28;20024;-13
2023/01/10 06:02:26;;;;;;;30.10;11.52;;;0.50;87.80;;;;;;5073025;28;20028;-13
2023/01/10 06:04:54;;;;;;;29.92;11.80;;;0.60;87.80;;;;;;5072708;28;20074;-13
2023/01/10 06:07:21;;;;;;;22.52;11.85;;;0.50;87.80;;;;;;5072652;28;20032;-14
2023/01/10 06:09:47;;;;;;;25.65;11.13;;;0.50;87.80;;;;;;5072703;28;20380;-14
2023/01/10 06:12:13;;;;;;;35.92;13.02;;;0.50;87.80;;;;;;5072845;28;20025;-14
2023/01/10 06:14:39;;;;;;;37.28;14.70;;;0.50;87.70;;;;;;5072843;28;20029;-13
2023/01/10 06:17:08;;;;;;;31.85;11.98;;;0.50;87.70;;;;;;5072606;28;20031;-13
2023/01/10 06:19:34;;;;;;;25.80;12.02;;;0.40;87.60;;;;;;5072177;28;20131;-13
2023/01/10 06:22:01;;;;;;;30.27;12.68;;;0.40;87.70;;;;;;5072604;28;20056;-13
2023/01/10 06:24:27;;;;;;;28.17;12.48;;;0.40;87.70;;;;;;5072578;28;20058;-12
2023/01/10 06:26:53;;;;;;;20.45;11.82;;;0.30;87.70;;;;;;5072232;28;20063;-13
2023/01/10 06:29:19;;;;;;;21.35;12.48;;;0.30;87.80;;;;;;5072812;28;20029;-14
2023/01/10 06:31:45;;;;;;;23.05;13.43;;;0.30;87.80;;;;;;5071226;28;20380;-13
2023/01/10 06:34:11;;;;;;;18.48;11.05;;;0.30;87.90;;;;;;5072732;28;20045;-13
2023/01/10 06:36:37;;;;;;;24.33;13.18;;;0.30;88.00;;;;;;5074354;28;20472;-13
2023/01/10 06:39:03;;;;;;;22.00;12.70;;;0.40;87.90;;;;;;5076139;28;20028;-13
2023/01/10 06:41:29;;;;;;;18.13;10.85;;;0.40;87.90;;;;;;5076553;28;20036;-13
2023/01/10 06:43:55;;;;;;;17.40;9.52;;;0.30;87.80;;;;;;5076760;28;20450;-13
2023/01/10 06:46:20;;;;;;;23.08;12.95;;;0.30;87.90;;;;;;5076601;28;20028;-13
2023/01/10 06:48:47;;;;;;;21.23;12.63;;;0.30;87.90;;;;;;5076500;28;20477;-13
2023/01/10 06:51:15;;;;;;;20.75;12.80;;;0.30;87.80;;;;;;5076193;28;20511;-15
2023/01/10 06:53:41;;;;;;;22.02;13.82;;;0.30;87.90;;;;;;5076543;28;20048;-13
2023/01/10 06:56:08;;;;;;;23.80;14.20;;;0.30;88.00;;;;;;5076311;28;20086;-14
2023/01/10 06:58:37;;;;;;;23.30;13.98;;;0.20;88.00;;;;;;5076459;28;20109;-14
2023/01/10 07:01:14;;;;;;;22.13;13.60;;;0.30;88.00;;;;;;5075912;28;20040;-14
2023/01/10 07:03:40;;;;;;;21.50;12.07;;;0.30;88.10;;;;;;5076257;28;20021;-14
2023/01/10 07:06:09;;;;;;;22.30;12.80;;;0.30;88.10;;;;;;5076369;28;20051;-14
2023/01/10 07:08:40;;;;;;;21.73;13.23;;;0.30;88.00;;;;;;5075860;28;20028;-13
2023/01/10 07:11:07;;;;;;;21.38;12.52;;;0.30;88.10;;;;;;5075636;28;20408;-14
2023/01/10 07:13:33;;;;;;;17.10;10.15;;;0.30;88.10;;;;;;5075971;28;20406;-15
2023/01/10 07:16:07;;;;;;;23.33;13.23;;;0.40;88.10;;;;;;5075593;28;20519;-14
2023/01/10 07:18:34;;;;;;;29.17;15.45;;;0.40;88.10;;;;;;5075919;28;20025;-15
2023/01/10 07:21:01;;;;;;;48.30;22.23;;;0.40;88.10;;;;;;5075373;28;20049;-14
2023/01/10 07:23:27;;;;;;;91.47;40.15;;;0.40;88.10;;;;;;5075881;28;20024;-13
2023/01/10 07:25:53;;;;;;;65.85;32.65;;;0.40;88.10;;;;;;5075717;28;20036;-14
2023/01/10 07:28:19;;;;;;;35.97;18.42;;;0.50;88.10;;;;;;5075746;28;20021;-15
2023/01/10 07:30:45;;;;;;;35.70;19.05;;;0.50;88.10;;;;;;5075880;28;20380;-14
2023/01/10 07:33:11;;;;;;;37.05;19.25;;;0.60;88.20;;;;;;5074121;28;20117;-14
2023/01/10 07:35:37;;;;;;;43.72;22.13;;;0.70;88.20;;;;;;5075486;28;20593;-13
2023/01/10 07:38:03;;;;;;;32.50;17.35;;;0.80;88.20;;;;;;5075617;28;20028;-13
2023/01/10 07:40:29;;;;;;;38.92;19.45;;;0.80;88.20;;;;;;5075351;28;20380;-14
2023/01/10 07:43:00;;;;;;;36.47;18.65;;;0.90;88.20;;;;;;5075329;28;20059;-14
2023/01/10 07:45:28;;;;;;;52.08;25.42;;;0.90;88.10;;;;;;5075244;28;20028;-13
2023/01/10 07:47:58;;;;;;;34.55;18.92;;;1.00;88.10;;;;;;5074625;28;20042;-14
2023/01/10 07:50:27;;;;;;;31.20;17.90;;;1.00;88.00;;;;;;5075042;28;20455;-13
2023/01/10 07:52:53;;;;;;;36.38;21.30;;;1.00;87.90;;;;;;5074909;28;20020;-14
2023/01/10 07:55:19;;;;;;;29.80;16.60;;;1.00;87.90;;;;;;5074956;28;20058;-14
2023/01/10 07:57:45;;;;;;;29.55;17.40;;;1.00;88.10;;;;;;5075305;28;20066;-14
2023/01/10 08:00:11;;;;;;;30.52;16.77;;;1.10;88.20;;;;;;5073507;28;20029;-14
2023/01/10 08:02:37;;;;;;;30.63;17.95;;;1.20;88.00;;;;;;5074936;28;20483;-13
2023/01/10 08:05:03;;;;;;;35.03;20.52;;;1.20;87.80;;;;;;5074926;28;20021;-13
2023/01/10 08:07:31;;;;;;;39.75;22.25;;;1.30;87.90;;;;;;5074642;28;20051;-13
2023/01/10 08:09:57;;;;;;;37.92;21.58;;;1.40;87.90;;;;;;5074948;28;20017;-15
2023/01/10 08:12:24;;;;;;;32.38;19.25;;;1.50;87.90;;;;;;5074717;28;20400;-14
2023/01/10 08:14:50;;;;;;;39.28;21.95;;;1.50;87.90;;;;;;5074388;28;20025;-14
2023/01/10 08:17:16;;;;;;;30.95;18.38;;;1.60;87.80;;;;;;5075088;28;20028;-14
2023/01/10 08:19:42;;;;;;;38.58;21.58;;;1.70;87.50;;;;;;5074131;28;20378;-14
2023/01/10 08:22:08;;;;;;;33.85;19.52;;;1.90;87.30;;;;;;5075119;28;20044;-14
2023/01/10 08:24:34;;;;;;;27.48;17.73;;;2.00;87.40;;;;;;5074554;28;20036;-13
2023/01/10 08:27:00;;;;;;;38.08;21.65;;;2.10;87.50;;;;;;5072818;28;20103;-14
2023/01/10 08:29:27;;;;;;;45.17;23.02;;;2.20;87.20;;;;;;5074833;28;20540;-13
2023/01/10 08:31:53;;;;;;;38.22;21.58;;;2.30;87.30;;;;;;5074295;28;20031;-14
2023/01/10 08:34:19;;;;;;;42.85;23.75;;;2.40;87.20;;;;;;5074140;28;20033;-14
2023/01/10 08:36:49;;;;;;;37.05;21.42;;;2.60;87.30;;;;;;5074196;28;20027;-14
2023/01/10 08:39:15;;;;;;;42.65;23.17;;;2.70;87.20;;;;;;5074531;28;20021;-13
2023/01/10 08:41:41;;;;;;;40.22;24.52;;;2.90;87.20;;;;;;5074847;28;20036;-14
2023/01/10 08:44:07;;;;;;;40.60;21.60;;;3.00;87.10;;;;;;5074354;28;20047;-14
2023/01/10 08:46:33;;;;;;;35.30;20.25;;;3.20;87.00;;;;;;5074065;28;20480;-14
2023/01/10 08:48:59;;;;;;;45.22;24.88;;;3.40;86.70;;;;;;5074072;28;20028;-11
2023/01/10 08:51:24;;;;;;;38.83;22.65;;;3.50;87.00;;;;;;5073978;28;20377;-13
2023/01/10 08:53:50;;;;;;;43.75;25.92;;;3.70;87.00;;;;;;5073818;28;20081;-11
2023/01/10 08:56:16;;;;;;;46.70;28.15;;;3.90;86.80;;;;;;5074138;28;20064;-13
2023/01/10 08:58:42;;;;;;;35.67;22.98;;;4.10;86.60;;;;;;5073563;28;20021;-12
2023/01/10 09:01:10;;;;;;;40.28;23.45;;;4.40;85.90;;;;;;5072932;28;20028;-13
2023/01/10 09:03:36;;;;;;;39.20;23.92;;;4.70;85.50;;;;;;5074026;28;20089;-12
2023/01/10 09:06:02;;;;;;;40.72;23.20;;;5.00;85.50;;;;;;5073834;28;20032;-13
2023/01/10 09:08:28;;;;;;;41.22;23.58;;;5.40;85.60;;;;;;5073602;28;20021;-12
2023/01/10 09:10:57;;;;;;;39.75;23.45;;;5.60;85.70;;;;;;5073340;28;20017;-12
2023/01/10 09:13:23;;;;;;;33.33;21.00;;;5.90;84.90;;;;;;5073489;28;20021;-13
2023/01/10 09:15:50;;;;;;;36.25;22.27;;;6.10;83.20;;;;;;5073412;28;20031;-12
2023/01/10 09:18:16;;;;;;;35.65;21.98;;;6.40;83.50;;;;;;5073839;28;20433;-12
2023/01/10 09:20:42;;;;;;;35.40;20.23;;;6.60;83.60;;;;;;5073171;28;20481;-12
2023/01/10 09:23:17;;;;;;;29.58;18.95;;;6.90;84.20;;;;;;5073208;28;20638;-13
2023/01/10 09:25:44;;;;;;;29.73;17.48;;;7.00;83.70;;;;;;5073638;28;20051;-12
2023/01/10 09:28:10;;;;;;;25.60;15.98;;;7.20;83.40;;;;;;5073500;28;20544;-11
2023/01/10 09:30:36;;;;;;;25.65;16.48;;;7.40;83.20;;;;;;5071900;28;20100;-12
2023/01/10 09:33:03;;;;;;;24.73;15.80;;;7.60;83.60;;;;;;5073086;28;20036;-12
2023/01/10 09:35:30;;;;;;;24.30;15.23;;;7.80;83.40;;;;;;5073176;28;20037;-12
2023/01/10 09:37:59;;;;;;;22.17;13.93;;;8.00;83.00;;;;;;5073058;28;20020;-12
2023/01/10 09:40:43;;;;;;;21.40;13.52;;;8.20;82.70;;;;;;5073179;28;20041;-13
2023/01/10 09:43:36;;;;;;;20.60;13.23;;;8.50;82.70;;;;;;5072915;28;20059;-12
2023/01/10 09:46:08;;;;;;;22.35;14.05;;;8.80;82.50;;;;;;5073257;28;20131;-12
2023/01/10 09:48:59;;;;;;;19.02;11.82;;;9.00;82.60;;;;;;5073016;28;20048;-12
2023/01/10 09:51:37;;;;;;;20.27;12.40;;;9.20;81.80;;;;;;5072990;28;20024;-12
2023/01/10 09:54:09;;;;;;;19.98;11.98;;;9.40;82.30;;;;;;5072973;28;20029;-12
2023/01/10 09:56:36;;;;;;;19.50;12.45;;;9.60;81.00;;;;;;5072856;28;20028;-12
2023/01/10 09:59:02;;;;;;;17.85;12.05;;;9.80;82.10;;;;;;5072908;28;20024;-13
2023/01/10 10:01:36;;;;;;;21.63;13.40;;;9.90;82.10;;;;;;5072598;28;20037;-12
2023/01/10 10:04:25;;;;;;;20.38;13.05;;;10.20;82.20;;;;;;5072693;28;20427;-12
2023/01/10 10:06:52;;;;;;;28.60;13.55;;;10.30;82.20;;;;;;5068992;28;20032;-12
2023/01/10 10:09:32;;;;;;;18.80;13.05;;;10.60;81.40;;;;;;5072706;28;20357;-12
2023/01/10 10:12:24;;;;;;;18.45;12.07;;;10.70;81.60;;;;;;5072622;28;20060;-11
2023/01/10 10:15:22;;;;;;;18.98;12.25;;;10.90;82.10;;;;;;5072581;28;20020;-12
2023/01/10 10:17:51;;;;;;;19.13;11.38;;;11.30;82.70;;;;;;5072774;28;20095;-12
2023/01/10 10:20:36;;;;;;;14.85;10.25;;;11.50;81.30;;;;;;5072136;28;20076;-12
2023/01/10 10:23:40;;;;;;;15.73;11.43;;;11.60;81.90;;;;;;5072488;28;20052;-12
2023/01/10 10:26:12;;;;;;;17.08;12.40;;;11.70;82.40;;;;;;5072213;28;20037;-13
2023/01/10 10:28:55;;;;;;;16.67;11.45;;;11.90;82.40;;;;;;5072852;28;20024;-12
2023/01/10 10:31:32;;;;;;;17.92;11.43;;;12.10;82.30;;;;;;5072332;28;20476;-11
2023/01/10 10:34:36;;;;;;;18.30;11.32;;;12.40;81.60;;;;;;5072208;28;20112;-12
2023/01/10 10:37:22;;;;;;;18.95;12.90;;;12.70;80.60;;;;;;5049967;28;20033;-12
2023/01/10 10:39:58;;;;;;;19.25;12.90;;;12.80;79.70;;;;;;5049930;28;20036;-13
2023/01/10 10:42:34;;;;;;;21.20;13.23;;;12.80;77.90;;;;;;5050372;28;20033;-12
2023/01/10 10:45:07;;;;;;;17.70;12.40;;;12.90;77.20;;;;;;5049880;28;20029;-12
2023/01/10 10:47:37;;;;;;;17.17;12.00;;;12.90;76.50;;;;;;5050076;28;20040;-13
2023/01/10 10:50:18;;;;;;;21.30;12.02;;;13.00;78.60;;;;;;5050345;28;20036;-13
2023/01/10 10:52:45;;;;;;;18.27;12.50;;;13.30;76.50;;;;;;5049941;28;20393;-12
2023/01/10 10:55:22;;;;;;;17.73;12.02;;;13.50;76.50;;;;;;5049944;28;20075;-12
2023/01/10 10:57:48;;;;;;;16.38;11.80;;;13.60;76.10;;;;;;5049937;28;20543;-12
2023/01/10 11:00:27;;;;;;;18.80;11.88;;;13.80;74.90;;;;;;5049807;28;20044;-12
2023/01/10 11:03:14;;;;;;;17.13;12.60;;;14.00;70.50;;;;;;5049686;28;20037;-12
2023/01/10 11:05:45;;;;;;;19.75;13.32;;;14.20;70.10;;;;;;5050146;28;20036;-13
2023/01/10 11:08:15;;;;;;;16.65;11.20;;;14.30;69.50;;;;;;5050076;28;20048;-12
2023/01/10 11:10:45;;;;;;;16.77;11.52;;;14.50;67.50;;;;;;5049685;28;20112;-11
2023/01/10 11:13:38;;;;;;;16.10;10.30;;;14.60;68.50;;;;;;5056651;28;20453;-12
2023/01/10 11:16:05;;;;;;;16.93;10.33;;;14.80;66.40;;;;;;5072296;28;20476;-12
2023/01/10 11:18:32;;;;;;;15.88;10.15;;;15.00;67.30;;;;;;5072033;28;20104;-12
2023/01/10 11:21:00;;;;;;;16.85;11.65;;;15.10;66.80;;;;;;5071425;28;20048;-12
2023/01/10 11:23:32;;;;;;;13.95;9.98;;;15.30;66.90;;;;;;5073721;28;20116;-12
2023/01/10 11:25:58;;;;;;;15.77;10.75;;;15.30;67.30;;;;;;5075718;28;20120;-12
2023/01/10 11:28:30;;;;;;;14.07;9.65;;;15.30;67.70;;;;;;5075797;28;20070;-12
2023/01/10 11:30:57;;;;;;;13.98;8.57;;;15.40;67.70;;;;;;5075302;28;20582;-11
2023/01/10 11:33:34;;;;;;;13.32;9.25;;;15.60;67.30;;;;;;5075837;28;20020;-11
2023/01/10 11:36:03;;;;;;;14.02;9.20;;;15.80;66.90;;;;;;5075320;28;20111;-12
2023/01/10 11:38:30;;;;;;;12.55;8.60;;;15.90;66.20;;;;;;5075255;28;20174;-12
2023/01/10 11:40:56;;;;;;;13.68;9.23;;;16.10;66.40;;;;;;5074830;28;20134;-11
2023/01/10 11:43:37;;;;;;;12.77;8.18;;;16.20;66.40;;;;;;5075534;28;20032;-12
2023/01/10 11:46:16;;;;;;;14.68;9.50;;;16.30;65.80;;;;;;5075474;28;20047;-12
2023/01/10 11:48:50;;;;;;;14.00;9.18;;;16.40;64.10;;;;;;5075194;28;20027;-12
2023/01/10 11:51:24;;;;;;;13.65;9.98;;;16.50;62.70;;;;;;5075590;28;20480;-12
2023/01/10 11:53:58;;;;;;;13.57;9.20;;;16.80;61.30;;;;;;5075064;28;20028;-11
2023/01/10 11:56:27;;;;;;;15.57;9.65;;;16.90;60.50;;;;;;5075188;28;20024;-11
2023/01/10 11:58:54;;;;;;;14.65;9.60;;;17.10;60.70;;;;;;5074925;28;20085;-11
2023/01/10 12:01:30;;;;;;;16.67;10.13;;;17.20;61.10;;;;;;5075207;28;20429;-11
2023/01/10 12:03:57;;;;;;;14.65;10.20;;;17.30;58.10;;;;;;5074992;28;20036;-12
2023/01/10 12:06:23;;;;;;;14.23;9.40;;;17.40;56.30;;;;;;5074926;28;20036;-12
2023/01/10 12:08:50;;;;;;;14.77;10.07;;;17.50;57.60;;;;;;5074629;28;20099;-12
2023/01/10 12:11:16;;;;;;;13.82;9.75;;;17.50;57.80;;;;;;5074579;28;20025;-12
2023/01/10 12:13:51;;;;;;;14.73;9.68;;;17.50;57.50;;;;;;5074967;28;20178;-12
2023/01/10 12:16:20;;;;;;;14.27;9.77;;;17.60;56.50;;;;;;5074649;28;20507;-12
2023/01/10 12:18:47;;;;;;;12.48;8.93;;;17.70;56.40;;;;;;5074061;28;20028;-11
2023/01/10 12:21:17;;;;;;;13.82;9.85;;;17.60;56.80;;;;;;5074722;28;20357;-10
2023/01/10 12:23:45;;;;;;;13.60;9.82;;;17.60;57.50;;;;;;5074722;28;20025;-12
2023/01/10 12:26:13;;;;;;;15.02;10.73;;;17.50;58.90;;;;;;5074884;28;20028;-11
2023/01/10 12:28:52;;;;;;;12.35;9.38;;;17.60;58.60;;;;;;5074379;28;20131;-11
2023/01/10 12:31:21;;;;;;;13.40;10.23;;;17.70;59.30;;;;;;5074378;28;20021;-11
2023/01/10 12:34:05;;;;;;;13.02;9.68;;;17.80;57.90;;;;;;5074036;28;20024;-11
2023/01/10 12:36:43;;;;;;;14.35;9.50;;;17.80;57.60;;;;;;5074271;28;20059;-12
2023/01/10 12:39:50;;;;;;;11.55;8.77;;;17.90;59.00;;;;;;5074251;28;20028;-11
2023/01/10 12:45:18;;;;;;;12.05;8.70;;;17.90;57.70;;;;;;5052090;28;20033;-11
2023/01/10 12:47:55;;;;;;;14.48;9.85;;;17.90;57.60;;;;;;5051905;28;20110;-11
2023/01/10 12:50:37;;;;;;;13.20;9.75;;;17.80;56.80;;;;;;5051887;28;20413;-12
2023/01/10 12:53:29;;;;;;;14.77;9.73;;;17.60;57.40;;;;;;5051599;28;20028;-11
2023/01/10 12:55:59;;;;;;;13.48;9.30;;;17.50;58.10;;;;;;5051690;28;20128;-11
2023/01/10 12:58:36;;;;;;;14.52;9.93;;;17.60;58.50;;;;;;5051645;28;20033;-12
2023/01/10 13:01:03;;;;;;;14.43;9.88;;;17.80;54.80;;;;;;5051735;28;20068;-12
2023/01/10 13:03:31;;;;;;;12.55;9.10;;;17.90;55.30;;;;;;5051952;28;20041;-12